Time;durP1;ratioP1;P1;durP2;ratioP2;P2;SDS_P1;SDS_P2;PMS_P1;PMS_P2;Temp;Humidity;BMP_temperature;BMP_pressure;BME280_temperature;BME280_humidity;BME280_pressure;Samples;Min_cycle;Max_cycle;Signal;HPM_P1;HPM_P2
2022/11/08 00:01:58;;;;;;;;;;;;;;;10.65;59.54;100102.00;4447233;32;34200;-63
2022/11/08 00:04:26;;;;;;;;;;;;;;;10.89;58.83;100112.84;4449575;32;33222;-65
2022/11/08 00:15:11;;;;;;;;;;;;;;;10.76;59.61;100110.16;4437865;32;34444;-63
2022/11/08 00:17:38;;;;;;;;;;;;;;;10.86;58.99;100111.25;4451734;32;34056;-68
2022/11/08 00:20:07;;;;;;;;;;;;;;;10.81;59.57;100110.69;4449635;32;33663;-64
2022/11/08 00:22:35;;;;;;;;;;;;;;;10.85;60.27;100105.97;4439485;32;35186;-64
2022/11/08 00:25:02;;;;;;;;;;;;;;;11.05;59.85;100101.91;4450296;32;33791;-65
2022/11/08 00:27:29;;;;;;;;;;;;;;;11.28;59.37;100109.16;4451186;32;35210;-65
2022/11/08 00:29:57;;;;;;;;;;;;;;;11.45;58.37;100110.59;4448855;32;31923;-65
2022/11/08 00:32:24;;;;;;;;;;;;;;;11.54;57.68;100107.25;4450083;32;34143;-62
2022/11/08 00:34:52;;;;;;;;;;;;;;;11.55;57.32;100113.47;4451323;32;32897;-64
2022/11/08 00:37:19;;;;;;;;;;;;;;;11.45;57.41;100107.06;4450883;32;33320;-63
2022/11/08 00:39:47;;;;;;;;;;;;;;;11.42;57.65;100105.47;4447995;32;33589;-65
2022/11/08 00:42:14;;;;;;;;;;;;;;;11.35;58.48;100099.69;4448362;32;34171;-63
2022/11/08 00:44:42;;;;;;;;;;;;;;;11.14;58.37;100106.62;4443997;32;35349;-64
2022/11/08 00:47:09;;;;;;;;;;;;;;;11.33;57.13;100106.13;4449744;32;34228;-63
2022/11/08 00:49:36;;;;;;;;;;;;;;;11.26;57.49;100104.87;4446144;32;34404;-63
2022/11/08 00:52:04;;;;;;;;;;;;;;;11.26;57.14;100096.81;4435061;32;32802;-64
2022/11/08 00:54:31;;;;;;;;;;;;;;;11.32;56.91;100102.59;4444864;32;35482;-64
2022/11/08 00:56:58;;;;;;;;;;;;;;;11.43;56.30;100109.88;4450723;32;34563;-65
2022/11/08 00:59:26;;;;;;;;;;;;;;;11.50;56.33;100102.25;4447139;32;34637;-63
2022/11/08 01:01:53;;;;;;;;;;;;;;;11.55;55.97;100102.75;4449676;32;34188;-66
2022/11/08 01:04:20;;;;;;;;;;;;;;;11.56;55.96;100099.97;4448307;32;34351;-66
2022/11/08 01:06:48;;;;;;;;;;;;;;;11.62;55.67;100090.59;4445500;32;33968;-63
2022/11/08 01:09:15;;;;;;;;;;;;;;;11.64;55.46;100091.34;4451040;32;33726;-64
2022/11/08 01:11:45;;;;;;;;;;;;;;;11.49;56.37;100100.50;4436467;32;34181;-66
2022/11/08 01:14:13;;;;;;;;;;;;;;;11.66;55.24;100095.63;4437121;32;33242;-65
2022/11/08 01:16:40;;;;;;;;;;;;;;;11.73;54.88;100097.87;4446595;32;35043;-65
2022/11/08 01:19:07;;;;;;;;;;;;;;;11.69;54.87;100094.56;4451144;32;33444;-64
2022/11/08 01:21:35;;;;;;;;;;;;;;;11.49;56.25;100096.00;4446487;32;34291;-65
2022/11/08 01:24:02;;;;;;;;;;;;;;;11.72;54.92;100088.97;4451080;32;35200;-65
2022/11/08 01:26:30;;;;;;;;;;;;;;;11.45;54.90;100091.84;4450858;32;35425;-64
2022/11/08 01:28:57;;;;;;;;;;;;;;;11.69;54.40;100094.56;4451541;32;33346;-66
2022/11/08 01:31:26;;;;;;;;;;;;;;;11.63;54.38;100089.66;4445079;32;35254;-66
2022/11/08 01:33:53;;;;;;;;;;;;;;;11.60;54.31;100085.38;4449512;32;33976;-65
2022/11/08 01:36:22;;;;;;;;;;;;;;;11.47;54.82;100087.25;4449798;32;34976;-64
2022/11/08 01:38:49;;;;;;;;;;;;;;;11.61;54.37;100091.59;4450696;32;33916;-65
2022/11/08 01:41:17;;;;;;;;;;;;;;;11.56;53.71;100091.94;4446766;32;34041;-65
2022/11/08 01:43:46;;;;;;;;;;;;;;;11.51;53.49;100102.13;4450749;32;34112;-63
2022/11/08 01:46:31;;;;;;;;;;;;;;;11.43;53.85;100088.44;4450561;32;35506;-64
2022/11/08 01:49:02;;;;;;;;;;;;;;;11.31;54.10;100095.53;4451263;32;33455;-64
2022/11/08 01:51:30;;;;;;;;;;;;;;;11.45;53.57;100091.84;4444165;32;34428;-65
2022/11/08 01:53:57;;;;;;;;;;;;;;;11.45;53.73;100088.31;4449798;32;35553;-64
2022/11/08 01:56:25;;;;;;;;;;;;;;;11.39;54.04;100084.25;4451465;32;34332;-65
2022/11/08 01:58:52;;;;;;;;;;;;;;;11.34;54.04;100091.78;4451423;32;34557;-64
2022/11/08 02:01:19;;;;;;;;;;;;;;;11.24;54.27;100077.34;4440775;32;34537;-66
2022/11/08 02:03:47;;;;;;;;;;;;;;;11.12;54.18;100079.06;4443079;32;35427;-65
2022/11/08 02:06:14;;;;;;;;;;;;;;;11.17;54.04;100072.44;4446844;32;34411;-66
2022/11/08 02:08:42;;;;;;;;;;;;;;;11.15;54.50;100069.00;4449362;32;33661;-63
2022/11/08 02:11:13;;;;;;;;;;;;;;;11.25;53.87;100068.31;4448315;32;33989;-64
2022/11/08 02:13:41;;;;;;;;;;;;;;;11.30;53.38;100072.41;4451139;32;34751;-64
2022/11/08 02:16:14;;;;;;;;;;;;;;;11.33;53.15;100069.50;4448438;32;34539;-65
2022/11/08 02:18:42;;;;;;;;;;;;;;;11.36;52.98;100069.28;4451056;32;33458;-63
2022/11/08 02:21:11;;;;;;;;;;;;;;;11.29;53.62;100080.53;4433568;32;35233;-63
2022/11/08 02:24:04;;;;;;;;;;;;;;;11.37;53.41;100072.81;4436767;32;34085;-63
2022/11/08 02:26:32;;;;;;;;;;;;;;;11.35;53.73;100074.72;4448241;32;34827;-64
2022/11/08 02:29:19;;;;;;;;;;;;;;;11.31;53.30;100078.59;4446255;32;34504;-65
2022/11/08 02:31:47;;;;;;;;;;;;;;;11.10;55.40;100075.63;4448782;32;34048;-65
2022/11/08 02:34:14;;;;;;;;;;;;;;;11.27;54.28;100075.28;4447596;32;34168;-66
2022/11/08 02:36:41;;;;;;;;;;;;;;;11.01;54.23;100077.16;4449955;32;34605;-65
2022/11/08 02:39:09;;;;;;;;;;;;;;;10.91;53.86;100074.28;4435271;32;33566;-64
2022/11/08 02:41:36;;;;;;;;;;;;;;;10.87;54.27;100074.59;4449764;32;34867;-64
2022/11/08 02:44:03;;;;;;;;;;;;;;;10.71;54.57;100081.03;4446551;32;34099;-63
2022/11/08 02:46:31;;;;;;;;;;;;;;;10.84;53.58;100080.16;4445512;32;34475;-65
2022/11/08 02:48:58;;;;;;;;;;;;;;;10.71;54.23;100080.19;4441460;32;33337;-65
2022/11/08 02:51:26;;;;;;;;;;;;;;;10.94;53.44;100074.03;4450752;32;32987;-65
2022/11/08 02:53:53;;;;;;;;;;;;;;;10.85;53.49;100085.44;4447051;32;34363;-65
2022/11/08 02:56:20;;;;;;;;;;;;;;;10.75;53.45;100081.66;4450011;32;35515;-63
2022/11/08 02:58:47;;;;;;;;;;;;;;;10.97;52.68;100083.69;4452004;32;33312;-65
2022/11/08 03:01:15;;;;;;;;;;;;;;;11.00;52.38;100087.97;4452013;32;33097;-64
2022/11/08 03:03:42;;;;;;;;;;;;;;;10.98;52.53;100088.09;4451610;32;34224;-65
2022/11/08 03:06:09;;;;;;;;;;;;;;;10.93;53.12;100087.56;4448003;32;32500;-65
2022/11/08 03:08:37;;;;;;;;;;;;;;;10.97;52.95;100089.03;4443658;32;31734;-64
2022/11/08 03:11:04;;;;;;;;;;;;;;;10.96;52.83;100087.34;4451794;32;33050;-64
2022/11/08 03:13:31;;;;;;;;;;;;;;;10.99;52.73;100089.81;4452056;32;33959;-65
2022/11/08 03:16:03;;;;;;;;;;;;;;;11.02;52.62;100086.91;4449414;32;34423;-64
2022/11/08 03:18:30;;;;;;;;;;;;;;;10.95;52.62;100086.50;4450702;32;34365;-65
2022/11/08 03:21:00;;;;;;;;;;;;;;;10.91;52.64;100098.41;4449080;32;35179;-64
2022/11/08 03:23:28;;;;;;;;;;;;;;;10.87;52.83;100088.84;4444012;32;33314;-64
2022/11/08 03:25:55;;;;;;;;;;;;;;;10.84;53.10;100090.88;4449366;32;34347;-64
2022/11/08 03:28:22;;;;;;;;;;;;;;;10.87;53.07;100088.84;4452413;32;33885;-63
2022/11/08 03:30:51;;;;;;;;;;;;;;;10.82;53.14;100085.66;4451202;32;35391;-65
2022/11/08 03:33:19;;;;;;;;;;;;;;;10.86;53.05;100092.50;4449006;32;34956;-65
2022/11/08 03:35:47;;;;;;;;;;;;;;;10.85;52.97;100093.47;4451893;32;33190;-64
2022/11/08 03:38:15;;;;;;;;;;;;;;;10.91;52.64;100086.78;4451044;32;33860;-65
2022/11/08 03:40:43;;;;;;;;;;;;;;;10.88;52.58;100092.38;4452835;32;34225;-63
2022/11/08 03:43:11;;;;;;;;;;;;;;;10.86;52.73;100099.69;4448367;32;35226;-64
2022/11/08 03:45:38;;;;;;;;;;;;;;;10.93;52.04;100095.59;4451955;32;34004;-65
2022/11/08 03:48:05;;;;;;;;;;;;;;;10.90;52.13;100096.66;4451426;32;33214;-64
2022/11/08 03:50:33;;;;;;;;;;;;;;;10.90;51.99;100098.47;4452036;32;35364;-63
2022/11/08 03:53:00;;;;;;;;;;;;;;;10.81;52.19;100093.78;4438411;32;35501;-65
2022/11/08 03:55:27;;;;;;;;;;;;;;;10.56;52.71;100092.81;4452232;32;34787;-64
2022/11/08 03:57:55;;;;;;;;;;;;;;;10.51;52.83;100091.41;4451645;32;33471;-64
2022/11/08 04:00:24;;;;;;;;;;;;;;;10.52;52.77;100096.66;4448611;32;33046;-64
2022/11/08 04:02:52;;;;;;;;;;;;;;;10.54;52.83;100093.88;4438423;32;33628;-62
2022/11/08 04:05:19;;;;;;;;;;;;;;;10.46;52.74;100092.59;4450937;32;34242;-63
2022/11/08 04:07:46;;;;;;;;;;;;;;;10.48;52.85;100097.84;4450689;32;33576;-63
2022/11/08 04:10:14;;;;;;;;;;;;;;;10.53;52.59;100093.03;4449530;32;34079;-65
2022/11/08 04:15:28;;;;;;;;;;;;;;;10.52;52.51;100085.94;4436065;32;34144;-65
2022/11/08 04:23:29;;;;;;;;;;;;;;;10.53;52.13;100090.34;4437281;32;34870;-65
2022/11/08 04:26:00;;;;;;;;;;;;;;;10.46;53.01;100095.28;4450431;32;32755;-63
2022/11/08 04:28:28;;;;;;;;;;;;;;;10.54;52.78;100091.22;4447728;32;32004;-64
2022/11/08 04:30:56;;;;;;;;;;;;;;;10.37;53.94;100085.19;4447515;32;33984;-63
2022/11/08 04:33:23;;;;;;;;;;;;;;;10.60;53.54;100088.13;4443658;32;33306;-64
2022/11/08 04:35:51;;;;;;;;;;;;;;;10.56;53.64;100083.91;4451022;32;34550;-63
2022/11/08 04:38:18;;;;;;;;;;;;;;;10.44;53.81;100082.97;4446872;32;34649;-64
2022/11/08 04:40:46;;;;;;;;;;;;;;;10.62;53.38;100078.97;4449883;32;34968;-63
2022/11/08 04:43:14;;;;;;;;;;;;;;;10.67;53.19;100076.84;4441003;32;33918;-66
2022/11/08 04:45:41;;;;;;;;;;;;;;;10.72;52.93;100076.53;4436562;32;34811;-64
2022/11/08 04:48:08;;;;;;;;;;;;;;;10.64;53.29;100076.22;4439311;32;34508;-67
2022/11/08 04:50:35;;;;;;;;;;;;;;;10.71;53.20;100077.50;4448614;32;34002;-64
2022/11/08 04:53:03;;;;;;;;;;;;;;;10.74;53.65;100074.59;4449015;32;33724;-63
2022/11/08 04:55:30;;;;;;;;;;;;;;;10.73;53.96;100068.41;4451589;32;34392;-63
2022/11/08 04:57:57;;;;;;;;;;;;;;;10.69;54.09;100072.25;4451426;32;34330;-63
2022/11/08 05:00:25;;;;;;;;;;;;;;;10.41;55.29;100072.47;4445289;32;34156;-64
2022/11/08 05:02:52;;;;;;;;;;;;;;;10.60;54.86;100072.06;4450243;32;34199;-66
2022/11/08 05:05:20;;;;;;;;;;;;;;;10.61;54.84;100073.75;4451529;32;33112;-68
2022/11/08 05:07:47;;;;;;;;;;;;;;;10.80;54.49;100073.31;4451797;32;32588;-66
2022/11/08 05:10:15;;;;;;;;;;;;;;;10.84;54.49;100061.44;4442633;32;34229;-64
2022/11/08 05:12:42;;;;;;;;;;;;;;;10.77;54.60;100070.87;4438516;32;34173;-65
2022/11/08 05:15:10;;;;;;;;;;;;;;;10.66;54.94;100079.66;4438398;32;34053;-62
2022/11/08 05:17:37;;;;;;;;;;;;;;;10.55;55.62;100083.06;4449841;32;33680;-64
2022/11/08 05:25:38;;;;;;;;;;;;;;;10.87;54.96;100082.62;4435559;32;34500;-62
2022/11/08 05:28:06;;;;;;;;;;;;;;;10.94;54.68;100087.44;4436454;32;32209;-65
2022/11/08 05:30:33;;;;;;;;;;;;;;;10.94;54.65;100090.12;4444185;32;34353;-64
2022/11/08 05:33:00;;;;;;;;;;;;;;;10.98;55.55;100089.91;4450187;32;35319;-67
2022/11/08 05:35:28;;;;;;;;;;;;;;;11.05;55.00;100091.19;4448451;32;34401;-64
2022/11/08 05:37:55;;;;;;;;;;;;;;;11.06;55.13;100095.56;4442527;32;31832;-64
2022/11/08 05:40:22;;;;;;;;;;;;;;;11.10;55.11;100097.06;4447113;32;34026;-64
2022/11/08 05:42:52;;;;;;;;;;;;;;;10.84;56.94;100102.44;4445135;32;34314;-62
2022/11/08 05:45:19;;;;;;;;;;;;;;;11.10;56.09;100107.78;4451943;32;35503;-63
2022/11/08 05:47:47;;;;;;;;;;;;;;;11.17;55.53;100101.91;4450946;32;32141;-63
2022/11/08 05:50:14;;;;;;;;;;;;;;;11.15;55.17;100106.50;4452075;32;32773;-63
2022/11/08 05:52:45;;;;;;;;;;;;;;;11.12;56.22;100100.50;4451340;32;34458;-63
2022/11/08 05:55:12;;;;;;;;;;;;;;;11.05;56.73;100100.09;4443993;32;34106;-63
2022/11/08 05:57:41;;;;;;;;;;;;;;;10.94;57.72;100108.00;4453768;32;33637;-63
2022/11/08 06:00:09;;;;;;;;;;;;;;;10.95;57.86;100109.75;4453397;32;34952;-65
2022/11/08 06:02:37;;;;;;;;;;;;;;;11.19;56.34;100099.94;4453605;32;35472;-64
2022/11/08 06:05:05;;;;;;;;;;;;;;;11.20;56.12;100098.13;4441630;32;34208;-63
2022/11/08 06:07:33;;;;;;;;;;;;;;;11.27;55.65;100095.84;4442173;32;33270;-63
2022/11/08 06:10:00;;;;;;;;;;;;;;;11.26;55.42;100103.03;4452371;32;35259;-63
2022/11/08 06:12:28;;;;;;;;;;;;;;;11.21;56.22;100102.53;4453128;32;34218;-62
2022/11/08 06:14:55;;;;;;;;;;;;;;;11.18;56.17;100105.44;4451895;32;33048;-65
2022/11/08 06:17:22;;;;;;;;;;;;;;;11.21;55.70;100113.25;4453667;32;33274;-65
2022/11/08 06:19:55;;;;;;;;;;;;;;;11.22;55.31;100106.91;4453409;32;34255;-63
2022/11/08 06:22:22;;;;;;;;;;;;;;;11.21;55.39;100117.75;4451813;32;33920;-65
2022/11/08 06:24:49;;;;;;;;;;;;;;;11.02;57.23;100127.09;4445367;32;36042;-63
2022/11/08 06:27:17;;;;;;;;;;;;;;;11.11;57.14;100126.44;4449078;32;34264;-63
2022/11/08 06:29:44;;;;;;;;;;;;;;;11.13;57.24;100121.81;4452433;32;34146;-64
2022/11/08 06:32:11;;;;;;;;;;;;;;;11.32;56.48;100118.69;4454636;32;34308;-64
2022/11/08 06:34:39;;;;;;;;;;;;;;;11.37;56.68;100123.72;4446971;32;35409;-63
2022/11/08 06:37:06;;;;;;;;;;;;;;;11.37;56.10;100115.69;4439780;32;33715;-65
2022/11/08 06:39:33;;;;;;;;;;;;;;;11.32;56.08;100118.69;4439520;32;32842;-65
2022/11/08 06:42:01;;;;;;;;;;;;;;;11.40;56.22;100119.00;4448917;32;34255;-63
2022/11/08 06:44:28;;;;;;;;;;;;;;;11.40;56.66;100119.00;4448848;32;33086;-63
2022/11/08 06:46:55;;;;;;;;;;;;;;;11.46;56.30;100125.75;4453781;32;33632;-64
2022/11/08 06:49:23;;;;;;;;;;;;;;;11.49;55.88;100120.12;4452613;32;33948;-65
2022/11/08 06:51:50;;;;;;;;;;;;;;;11.48;55.87;100123.78;4446367;32;34237;-64
2022/11/08 06:54:18;;;;;;;;;;;;;;;11.49;55.73;100127.31;4442865;32;32992;-63
2022/11/08 06:56:49;;;;;;;;;;;;;;;11.58;55.37;100129.34;4455193;32;33645;-65
2022/11/08 06:59:17;;;;;;;;;;;;;;;11.56;56.09;100132.13;4454719;32;34163;-63
2022/11/08 07:01:44;;;;;;;;;;;;;;;11.55;56.55;100133.09;4454491;32;34353;-62
2022/11/08 07:04:12;;;;;;;;;;;;;;;11.69;56.45;100131.25;4454143;32;34258;-62
2022/11/08 07:06:39;;;;;;;;;;;;;;;11.78;56.38;100126.06;4454397;32;33678;-64
2022/11/08 07:09:06;;;;;;;;;;;;;;;11.71;57.03;100129.28;4452862;32;33722;-62
2022/11/08 07:11:34;;;;;;;;;;;;;;;11.40;58.88;100137.75;4439255;32;34140;-64
2022/11/08 07:14:01;;;;;;;;;;;;;;;11.58;58.62;100137.38;4436520;32;34532;-63
2022/11/08 07:16:29;;;;;;;;;;;;;;;11.68;57.88;100145.59;4451751;32;32931;-63
2022/11/08 07:18:56;;;;;;;;;;;;;;;11.79;57.83;100137.66;4452261;32;32760;-64
2022/11/08 07:21:23;;;;;;;;;;;;;;;11.99;57.44;100133.50;4454607;32;35479;-66
2022/11/08 07:23:51;;;;;;;;;;;;;;;12.11;57.01;100137.97;4453357;32;34693;-65
2022/11/08 07:26:18;;;;;;;;;;;;;;;12.16;56.89;100137.62;4455184;32;32233;-62
2022/11/08 07:28:45;;;;;;;;;;;;;;;12.11;57.40;100135.28;4441802;32;34242;-64
2022/11/08 07:31:13;;;;;;;;;;;;;;;12.07;57.91;100131.97;4443712;32;35256;-64
2022/11/08 07:33:40;;;;;;;;;;;;;;;11.97;58.55;100136.28;4443347;32;34173;-66
2022/11/08 07:36:07;;;;;;;;;;;;;;;12.17;58.11;100132.16;4452841;32;33488;-64
2022/11/08 07:38:34;;;;;;;;;;;;;;;11.87;58.01;100136.13;4453702;32;32716;-64
2022/11/08 07:41:02;;;;;;;;;;;;;;;11.49;59.55;100149.63;4439804;32;34448;-64
2022/11/08 07:43:29;;;;;;;;;;;;;;;11.85;58.86;100151.50;4450005;32;34028;-64
2022/11/08 07:45:58;;;;;;;;;;;;;;;11.83;58.66;100145.34;4451745;32;32103;-66
2022/11/08 07:48:26;;;;;;;;;;;;;;;11.90;59.03;100145.78;4439042;32;34159;-63
2022/11/08 07:50:53;;;;;;;;;;;;;;;12.16;58.57;100154.56;4452836;32;35127;-63
2022/11/08 07:53:21;;;;;;;;;;;;;;;12.09;58.92;100145.28;4450654;32;33070;-64
2022/11/08 07:55:48;;;;;;;;;;;;;;;12.00;59.08;100154.00;4453109;32;33500;-64
2022/11/08 07:58:16;;;;;;;;;;;;;;;11.89;59.59;100149.44;4441635;32;33859;-64
2022/11/08 08:00:43;;;;;;;;;;;;;;;12.15;58.96;100146.66;4439641;32;34513;-64
2022/11/08 08:03:12;;;;;;;;;;;;;;;12.28;58.48;100156.34;4442641;32;34600;-63
2022/11/08 08:05:40;;;;;;;;;;;;;;;12.44;57.93;100144.44;4451001;32;33374;-64
2022/11/08 08:08:08;;;;;;;;;;;;;;;11.85;60.40;100147.97;4448421;32;34344;-62
2022/11/08 08:10:36;;;;;;;;;;;;;;;12.16;59.27;100148.34;4446709;32;36640;-64
2022/11/08 08:13:03;;;;;;;;;;;;;;;12.31;59.03;100144.50;4453486;32;33477;-62
2022/11/08 08:15:30;;;;;;;;;;;;;;;11.94;60.54;100149.97;4453731;32;34385;-61
2022/11/08 08:17:58;;;;;;;;;;;;;;;11.81;60.38;100154.47;4451635;32;35218;-67
2022/11/08 08:20:26;;;;;;;;;;;;;;;11.57;61.35;100149.94;4440419;32;34479;-64
2022/11/08 08:22:53;;;;;;;;;;;;;;;11.74;61.04;100151.38;4454190;32;35307;-63
2022/11/08 08:25:21;;;;;;;;;;;;;;;11.49;62.19;100146.09;4442498;32;33836;-64
2022/11/08 08:27:49;;;;;;;;;;;;;;;11.21;63.82;100157.94;4448497;32;35020;-64
2022/11/08 08:30:16;;;;;;;;;;;;;;;11.34;63.50;100148.91;4453829;32;33016;-64
2022/11/08 08:32:44;;;;;;;;;;;;;;;11.61;62.39;100153.25;4453188;32;35143;-66
2022/11/08 08:35:19;;;;;;;;;;;;;;;11.61;63.08;100153.25;4454250;32;34365;-63
2022/11/08 08:37:46;;;;;;;;;;;;;;;11.62;62.79;100150.47;4451819;32;32690;-64
2022/11/08 08:40:14;;;;;;;;;;;;;;;11.77;62.62;100152.97;4452607;32;33907;-63
2022/11/08 08:42:41;;;;;;;;;;;;;;;11.44;63.87;100157.16;4453847;32;33052;-65
2022/11/08 08:45:09;;;;;;;;;;;;;;;11.94;62.14;100154.44;4453997;32;33677;-62
2022/11/08 08:47:41;;;;;;;;;;;;;;;12.08;62.43;100156.97;4453164;32;34391;-63
2022/11/08 08:50:08;;;;;;;;;;;;;;;11.78;63.56;100166.28;4451837;32;33887;-63
2022/11/08 08:52:36;;;;;;;;;;;;;;;12.27;62.05;100162.69;4444693;32;34129;-64
2022/11/08 08:55:03;;;;;;;;;;;;;;;12.25;61.53;100159.25;4446068;32;33342;-65
2022/11/08 08:57:31;;;;;;;;;;;;;;;12.42;61.48;100155.28;4450763;32;32941;-65
2022/11/08 08:59:58;;;;;;;;;;;;;;;12.27;62.27;100165.38;4453665;32;34467;-63
2022/11/08 09:02:45;;;;;;;;;;;;;;;12.19;62.77;100159.69;4452262;32;34041;-63
2022/11/08 09:05:13;;;;;;;;;;;;;;;12.17;62.74;100160.81;4448492;32;33434;-62
2022/11/08 09:07:40;;;;;;;;;;;;;;;12.47;62.36;100160.31;4440167;32;33059;-63
2022/11/08 09:10:08;;;;;;;;;;;;;;;12.46;61.88;100161.31;4438522;32;35497;-64
2022/11/08 09:14:47;;;;;;;;;;;;;;;12.20;62.73;100163.25;4494073;31;837962;-63
2022/11/08 09:17:15;;;;;;;;;;;;;;;12.10;63.50;100169.31;4505735;31;33037;-63
2022/11/08 09:19:42;;;;;;;;;;;;;;;11.92;63.95;100183.22;4505915;31;35108;-63
2022/11/08 09:22:09;;;;;;;;;;;;;;;10.98;67.56;100183.63;4509436;31;34017;-67
2022/11/08 09:24:37;;;;;;;;;;;;;;;11.28;66.68;100191.38;4506361;31;34776;-68
2022/11/08 09:27:04;;;;;;;;;;;;;;;11.38;66.67;100189.75;4504772;31;33635;-63
2022/11/08 09:29:32;;;;;;;;;;;;;;;11.36;66.71;100187.19;4493613;31;33787;-63
2022/11/08 09:31:59;;;;;;;;;;;;;;;11.46;67.42;100190.06;4499793;31;34424;-63
2022/11/08 09:34:27;;;;;;;;;;;;;;;11.87;66.12;100183.56;4500983;31;34960;-64
2022/11/08 09:36:54;;;;;;;;;;;;;;;11.66;67.24;100186.81;4512125;31;34000;-64
2022/11/08 09:39:21;;;;;;;;;;;;;;;12.06;65.95;100186.59;4500582;31;36080;-64
2022/11/08 09:41:49;;;;;;;;;;;;;;;11.81;66.01;100176.81;4497348;31;34259;-66
2022/11/08 09:44:33;;;;;;;;;;;;;;;11.76;66.14;100181.62;4501903;31;33676;-66
2022/11/08 09:47:08;;;;;;;;;;;;;;;11.54;67.14;100176.09;4495570;31;31899;-65
2022/11/08 09:49:43;;;;;;;;;;;;;;;11.21;69.57;100184.75;4485139;32;34877;-65
2022/11/08 09:52:18;;;;;;;;;;;;;;;11.12;69.78;100175.50;4479255;32;32617;-65
2022/11/08 09:54:45;;;;;;;;;;;;;;;11.99;66.48;100174.59;4491540;31;33673;-65
2022/11/08 09:57:15;;;;;;;;;;;;;;;12.01;66.13;100175.38;4503348;31;33066;-65
2022/11/08 09:59:43;;;;;;;;;;;;;;;11.51;68.88;100173.66;4491463;32;34269;-65
2022/11/08 10:02:18;;;;;;;;;;;;;;;12.10;67.33;100168.44;4487308;32;35647;-68
2022/11/08 10:04:56;;;;;;;;;;;;;;;12.33;66.18;100178.31;4483946;31;35003;-66
2022/11/08 10:07:32;;;;;;;;;;;;;;;12.65;65.34;100179.53;4504252;31;32004;-65
2022/11/08 10:10:03;;;;;;;;;;;;;;;12.64;65.55;100169.75;4469840;32;32918;-66
2022/11/08 10:12:30;;;;;;;;;;;;;;;12.62;66.13;100172.59;4472816;32;33553;-65
2022/11/08 10:15:02;;;;;;;;;;;;;;;12.13;67.58;100173.56;4491792;31;35458;-63
2022/11/08 10:17:34;;;;;;;;;;;;;;;12.18;67.81;100165.19;4474052;32;33195;-64
2022/11/08 10:20:23;;;;;;;;;;;;;;;12.81;65.68;100161.28;4473121;32;33740;-64
2022/11/08 10:23:10;;;;;;;;;;;;;;;13.08;63.88;100158.25;4472316;32;34359;-66
2022/11/08 10:25:38;;;;;;;;;;;;;;;13.01;64.45;100157.03;4479847;32;33604;-66
2022/11/08 10:28:06;;;;;;;;;;;;;;;13.12;63.65;100157.03;4470529;32;33018;-68
2022/11/08 10:30:35;;;;;;;;;;;;;;;13.23;63.75;100149.00;4467718;32;34196;-65
2022/11/08 10:33:07;;;;;;;;;;;;;;;13.20;64.58;100153.75;4458118;32;33987;-64
2022/11/08 10:35:37;;;;;;;;;;;;;;;13.63;62.74;100140.44;4459887;32;32935;-65
2022/11/08 10:38:09;;;;;;;;;;;;;;;12.68;65.10;100141.69;4460317;32;32933;-65
2022/11/08 10:40:38;;;;;;;;;;;;;;;13.17;63.54;100141.41;4466755;32;32739;-63
2022/11/08 10:43:08;;;;;;;;;;;;;;;13.10;64.13;100142.88;4461155;32;34192;-65
2022/11/08 10:45:35;;;;;;;;;;;;;;;13.08;64.63;100138.59;4471106;32;33731;-65
2022/11/08 10:48:03;;;;;;;;;;;;;;;13.52;63.84;100122.47;4464684;32;32151;-64
2022/11/08 10:50:34;;;;;;;;;;;;;;;13.77;63.40;100122.31;4457813;32;32957;-64
2022/11/08 10:53:02;;;;;;;;;;;;;;;14.03;62.31;100118.34;4467942;32;34523;-64
2022/11/08 10:55:37;;;;;;;;;;;;;;;14.12;61.40;100122.91;4480507;32;34263;-64
2022/11/08 10:58:24;;;;;;;;;;;;;;;13.19;63.21;100117.97;4471497;32;31856;-66
2022/11/08 11:00:58;;;;;;;;;;;;;;;12.88;64.56;100132.09;4462301;32;34258;-64
2022/11/08 11:03:29;;;;;;;;;;;;;;;12.97;64.54;100125.97;4472091;32;35580;-64
2022/11/08 11:06:01;;;;;;;;;;;;;;;13.47;62.89;100116.62;4482552;32;33843;-63
2022/11/08 11:08:28;;;;;;;;;;;;;;;13.52;62.81;100119.78;4455952;32;31736;-64
2022/11/08 11:11:12;;;;;;;;;;;;;;;13.43;63.28;100122.37;4469718;32;32955;-67
2022/11/08 11:13:39;;;;;;;;;;;;;;;12.80;65.28;100121.94;4464121;32;34311;-64
2022/11/08 11:16:10;;;;;;;;;;;;;;;13.62;63.46;100116.38;4478128;32;33203;-64
2022/11/08 11:18:48;;;;;;;;;;;;;;;14.01;61.94;100117.59;4468408;32;32872;-64
2022/11/08 11:21:16;;;;;;;;;;;;;;;13.86;61.89;100113.47;4475204;32;33631;-64
2022/11/08 11:23:48;;;;;;;;;;;;;;;13.57;63.00;100118.56;4471601;32;34750;-64
2022/11/08 11:26:27;;;;;;;;;;;;;;;13.46;63.57;100122.97;4467544;32;33825;-63
2022/11/08 11:29:00;;;;;;;;;;;;;;;13.95;62.33;100115.41;4457541;32;33306;-67
2022/11/08 11:31:28;;;;;;;;;;;;;;;13.89;62.22;100108.69;4472537;32;34150;-67
2022/11/08 11:33:56;;;;;;;;;;;;;;;14.03;61.52;100114.75;4476159;32;34195;-63
2022/11/08 11:36:23;;;;;;;;;;;;;;;13.83;61.90;100111.87;4462292;32;34515;-67
2022/11/08 11:38:52;;;;;;;;;;;;;;;13.89;61.65;100115.91;4460078;32;34099;-68
2022/11/08 11:41:37;;;;;;;;;;;;;;;13.62;62.31;100113.66;4460013;32;33892;-66
2022/11/08 11:44:10;;;;;;;;;;;;;;;13.01;64.25;100111.34;4467794;32;34175;-65
2022/11/08 11:46:52;;;;;;;;;;;;;;;12.57;65.56;100110.31;4464091;32;33387;-67
2022/11/08 11:49:20;;;;;;;;;;;;;;;13.77;61.91;100108.84;4471979;32;33421;-68
2022/11/08 11:51:49;;;;;;;;;;;;;;;13.53;62.89;100107.19;4479526;32;32908;-65
2022/11/08 11:54:17;;;;;;;;;;;;;;;13.40;63.41;100111.87;4472403;32;33910;-68
2022/11/08 11:56:47;;;;;;;;;;;;;;;12.14;67.48;100110.91;4483725;32;33698;-65
2022/11/08 11:59:18;;;;;;;;;;;;;;;13.13;64.24;100104.13;4468187;32;31906;-67
2022/11/08 12:01:49;;;;;;;;;;;;;;;12.61;66.34;100105.56;4454571;32;32583;-67
2022/11/08 12:04:29;;;;;;;;;;;;;;;11.57;71.26;100101.69;4480408;32;32877;-70
2022/11/08 12:07:08;;;;;;;;;;;;;;;13.05;66.31;100096.69;4476811;32;34237;-67
2022/11/08 12:09:54;;;;;;;;;;;;;;;13.09;66.24;100086.56;4470089;32;33360;-67
2022/11/08 12:12:28;;;;;;;;;;;;;;;12.47;67.85;100090.50;4471812;32;32869;-68
2022/11/08 12:14:55;;;;;;;;;;;;;;;12.73;67.39;100091.16;4469787;32;33902;-68
2022/11/08 12:17:30;;;;;;;;;;;;;;;12.94;66.89;100088.66;4468100;32;33528;-65
2022/11/08 12:20:06;;;;;;;;;;;;;;;13.20;66.39;100079.34;4459533;32;32260;-66
2022/11/08 12:22:37;;;;;;;;;;;;;;;13.28;66.17;100074.22;4458878;32;32525;-66
2022/11/08 12:25:23;;;;;;;;;;;;;;;13.91;64.16;100074.44;4483306;32;34476;-67
2022/11/08 12:27:51;;;;;;;;;;;;;;;14.25;62.60;100074.28;4475819;32;32836;-66
2022/11/08 12:30:20;;;;;;;;;;;;;;;13.93;63.82;100074.31;4447467;32;31737;-66
2022/11/08 12:33:06;;;;;;;;;;;;;;;14.41;62.67;100066.63;4473544;32;35186;-65
2022/11/08 12:35:37;;;;;;;;;;;;;;;14.32;62.93;100059.34;4472598;32;35284;-67
2022/11/08 12:38:14;;;;;;;;;;;;;;;14.17;63.96;100053.41;4479458;32;33770;-66
2022/11/08 12:40:57;;;;;;;;;;;;;;;14.94;61.75;100056.75;4465839;32;32626;-65
2022/11/08 12:43:45;;;;;;;;;;;;;;;14.61;62.78;100048.78;4476705;32;32890;-66
2022/11/08 12:46:17;;;;;;;;;;;;;;;14.80;62.34;100050.72;4464165;32;32625;-65
2022/11/08 12:48:54;;;;;;;;;;;;;;;14.80;62.47;100055.25;4465142;32;33804;-64
2022/11/08 12:51:41;;;;;;;;;;;;;;;14.11;65.36;100051.25;4461832;32;31955;-65
2022/11/08 12:54:15;;;;;;;;;;;;;;;14.41;64.98;100045.09;4469148;32;32911;-66
2022/11/08 12:56:43;;;;;;;;;;;;;;;14.52;64.32;100046.87;4475047;32;34027;-66
2022/11/08 12:59:22;;;;;;;;;;;;;;;14.64;64.35;100037.75;4476570;32;35051;-65
2022/11/08 13:01:49;;;;;;;;;;;;;;;15.13;62.92;100046.87;4473606;32;32893;-65
2022/11/08 13:04:19;;;;;;;;;;;;;;;14.88;63.37;100042.81;4474057;32;35688;-64
2022/11/08 13:06:52;;;;;;;;;;;;;;;14.87;63.74;100040.25;4470965;32;32672;-67
2022/11/08 13:09:38;;;;;;;;;;;;;;;15.46;61.58;100041.31;4471605;32;33971;-67
2022/11/08 13:12:06;;;;;;;;;;;;;;;14.99;63.50;100038.31;4474491;32;33725;-66